KFLL Airport Information

Runway Information
Runway 09L Length 9000 ft width 150 ft
Elevation 6 ft Threshold 577 ft Heading 90
Runway 27R Length 9000 ft Width 150 ft
Elevation 5 ft Threshold 604 ft Heading 270
Runway 09R Length 5276 ft width 100 ft
Elevation 5 ft Threshold 320 ft Heading 90
Runway 27L Length 5276 ft Width 100 ft
Elevation 5 ft Threshold 142 ft Heading 270
Runway 13 Length 6930 ft width 150 ft
Elevation 6 ft Threshold 0 ft Heading 135
Runway 31 Length 6930 ft Width 150 ft
Elevation 6 ft Threshold 70 ft Heading 315
Airport Frequencies
Type APP Name MIAMI APP Frequency 118.1 MHZ
Type ATIS Name ATIS Frequency 135 MHZ
Type CLD Name CLNC DEL Frequency 128.4 MHZ
Type DEP Name MIAMI DEP Frequency 119.7 MHZ
Type GND Name GND Frequency 121.4 MHZ
Type TWR Name TWR Frequency 119.3 MHZ
Type UNIC Name UNICOM Frequency 122.95 MHZ
Airport Navaids
Type VOR-DME Name Fort Lauderdale Frequency 114400 KHZ
Type NDB Name Plantation Frequency 242 KHZ
Airport Weather Information & NOTAM
ADDS - METARS form results

(0317 UTC 20 October 2020)
Data provider http://aviationweather.gov/metar/data/
 
METAR text: KFLL 200308Z 08005KT 5SM -TSRA BR BKN020CB BKN055 OVC120 26/24 A2994 RMK AO2 TSB0259 OCNL LTGICCG W TS W MOV W T02560244 PNO $
Conditions at: KFLL (FT LAUDERD/HOLLY, FL, US) observed 0308 UTC 20 October 2020
Temperature: 25.6°C (78°F)
Dewpoint: 24.4°C (76°F) [RH = 93%]
Pressure (altimeter): 29.94 inches Hg (1014.0 mb)
Winds: from the E (80 degrees) at 6 MPH (5 knots; 2.6 m/s)
Visibility: 5 miles ( 8 km)
Ceiling: 2000 feet AGL
Clouds: broken clouds at 2000 feet AGL
broken clouds at 5500 feet AGL
overcast cloud deck at 12000 feet AGL
Weather: -TSRA BR  (light rain associated with thunderstorm(s), mist)
SOME DATA ABOVE MAY BE INACCURATE!!!
"$" is an indication the sensor requires maintenance

METAR text: KFLL 200302Z 09005KT 2SM +TSRA BR BKN020CB OVC055 26/24 A2995 RMK AO2 LTG DSNT W TSB0259 OCNL LTGICCG W TS W MOV W T02560244 PNO $
Conditions at: KFLL (FT LAUDERD/HOLLY, FL, US) observed 0302 UTC 20 October 2020
Temperature: 25.6°C (78°F)
Dewpoint: 24.4°C (76°F) [RH = 93%]
Pressure (altimeter): 29.95 inches Hg (1014.3 mb)
Winds: from the E (90 degrees) at 6 MPH (5 knots; 2.6 m/s)
Visibility: 2.00 miles (3.22 km)
Ceiling: 2000 feet AGL
Clouds: broken clouds at 2000 feet AGL
overcast cloud deck at 5500 feet AGL
Weather: +TSRA BR  (heavy rain associated with thunderstorm(s), mist)
SOME DATA ABOVE MAY BE INACCURATE!!!
"$" is an indication the sensor requires maintenance

METAR text: KFLL 200259Z 09006KT 4SM TSRA BR BKN025CB BKN055 OVC120 26/24 A2995 RMK AO2 LTG DSNT W TSB59 OCNL LTGICCG W TS W MOV W T02560244 PNO $
Conditions at: KFLL (FT LAUDERD/HOLLY, FL, US) observed 0259 UTC 20 October 2020
Temperature: 25.6°C (78°F)
Dewpoint: 24.4°C (76°F) [RH = 93%]
Pressure (altimeter): 29.95 inches Hg (1014.3 mb)
Winds: from the E (90 degrees) at 7 MPH (6 knots; 3.1 m/s)
Visibility: 4 miles ( 6 km)
Ceiling: 2500 feet AGL
Clouds: broken clouds at 2500 feet AGL
broken clouds at 5500 feet AGL
overcast cloud deck at 12000 feet AGL
Weather: TSRA BR  (rain associated with thunderstorm(s), mist)
SOME DATA ABOVE MAY BE INACCURATE!!!
"$" is an indication the sensor requires maintenance

METAR text: KFLL 200253Z 10008G20KT 6SM +RA BR SCT025 BKN055 BKN120 26/24 A2995 RMK AO2 PK WND 09028/0232 WSHFT 0225 LTG DSNT W RAB31 SLP142 6//// T02560239 53010 PNO $
Conditions at: KFLL (FT LAUDERD/HOLLY, FL, US) observed 0253 UTC 20 October 2020
Temperature: 25.6°C (78°F)
Dewpoint: 23.9°C (75°F) [RH = 90%]
Pressure (altimeter): 29.95 inches Hg (1014.3 mb)
[Sea-level pressure: 1014.2 mb]
Winds: from the E (100 degrees) at 9 MPH (8 knots; 4.1 m/s)
gusting to 23 MPH (20 knots; 10.3 m/s)
Visibility: 6 miles (10 km)
Ceiling: 5500 feet AGL
Clouds: scattered clouds at 2500 feet AGL
broken clouds at 5500 feet AGL
broken clouds at 12000 feet AGL
Weather: +RA BR  (heavy rain, mist)
SOME DATA ABOVE MAY BE INACCURATE!!!
"$" is an indication the sensor requires maintenance

METAR text: KFLL 200245Z 12014G21KT 10SM -RA SCT025 BKN065 BKN120 26/24 A2995 RMK AO2 PK WND 09028/0232 WSHFT 0225 RAB31 P0000 T02560239 $
Conditions at: KFLL (FT LAUDERD/HOLLY, FL, US) observed 0245 UTC 20 October 2020
Temperature: 25.6°C (78°F)
Dewpoint: 23.9°C (75°F) [RH = 90%]
Pressure (altimeter): 29.95 inches Hg (1014.3 mb)
Winds: from the ESE (120 degrees) at 16 MPH (14 knots; 7.2 m/s)
gusting to 24 MPH (21 knots; 10.8 m/s)
Visibility: 10 or more miles (16+ km)
Ceiling: 6500 feet AGL
Clouds: scattered clouds at 2500 feet AGL
broken clouds at 6500 feet AGL
broken clouds at 12000 feet AGL
Weather: -RA  (light rain)
SOME DATA ABOVE MAY BE INACCURATE!!!
"$" is an indication the sensor requires maintenance

Forecast for: KFLL (FT LAUDERD/HOLLY, FL, US)
Text: KFLL 200301Z 2003/2106 09013KT P6SM VCSH SCT025 BKN060
Forecast period: 0300 to 1400 UTC 20 October 2020
Forecast type: FROM: standard forecast or significant change
Winds: from the E (90 degrees) at 15 MPH (13 knots; 6.7 m/s)
Visibility: 6 or more miles (10+ km)
Ceiling: 6000 feet AGL
Clouds: scattered clouds at 2500 feet AGL
broken clouds at 6000 feet AGL
Weather: VCSH  (showers in vicinity)
Text: FM201400 09015G25KT P6SM VCSH SCT030 BKN060
Forecast period: 1400 UTC 20 October 2020 to 0000 UTC 21 October 2020
Forecast type: FROM: standard forecast or significant change
Winds: from the E (90 degrees) at 17 MPH (15 knots; 7.7 m/s)
gusting to 29 MPH (25 knots; 12.9 m/s)
Visibility: 6 or more miles (10+ km)
Ceiling: 6000 feet AGL
Clouds: scattered clouds at 3000 feet AGL
broken clouds at 6000 feet AGL
Weather: VCSH  (showers in vicinity)
Text: FM210000 09015KT P6SM VCSH SCT025 BKN060
Forecast period: 0000 to 0600 UTC 21 October 2020
Forecast type: FROM: standard forecast or significant change
Winds: from the E (90 degrees) at 17 MPH (15 knots; 7.7 m/s)
Visibility: 6 or more miles (10+ km)
Ceiling: 6000 feet AGL
Clouds: scattered clouds at 2500 feet AGL
broken clouds at 6000 feet AGL
Weather: VCSH  (showers in vicinity)